Stratford, North Carolina
Current Conditions -  °F | °C
As of 8:15 PM on Saturday 22 Nov 2014 (Local Time) from KGEV Reporting Station
Clear Clear  
Wind Chill: 38°   Ceiling: Unl
Heat Index: 38°   Visibility: 10mi
Dew Point: 14°   Wind: 0mph
Humidity: 38%   Direction: NA
Pressure: 30.28"   Gusts: NA
Location:  36.5212°N, 81.1574°W
Report Text: KGEV 230115Z AUTO 00000KT 10SM CLR 03/M10 A3028 RMK AO2 T00331100
Loading
Personal Weather Stations






























Interactive Weather Map New forecast layout! Learn more

10-Day Weather Forecast

Advertisements
Track Severe Weather on mobile